createdAt,value
2019-01-30T00:00:47.080Z,26.67
2019-01-30T00:03:35.322Z,25.60
2019-01-30T00:06:23.508Z,22.90
2019-01-30T00:09:11.393Z,22.93
2019-01-30T00:11:59.253Z,25.33
2019-01-30T00:14:47.083Z,25.07
2019-01-30T00:17:34.987Z,23.00
2019-01-30T00:20:23.060Z,26.63
2019-01-30T00:23:10.892Z,26.37
2019-01-30T00:25:58.788Z,25.17
2019-01-30T00:28:46.346Z,26.77
2019-01-30T00:31:34.417Z,32.27
2019-01-30T00:34:22.102Z,26.60
2019-01-30T00:37:09.971Z,29.20
2019-01-30T00:39:57.734Z,29.73
2019-01-30T00:42:45.603Z,29.17
2019-01-30T00:45:33.467Z,25.10
2019-01-30T00:48:21.408Z,27.73
2019-01-30T00:51:09.115Z,27.80
2019-01-30T00:53:56.922Z,29.40
2019-01-30T00:56:44.683Z,23.93
2019-01-30T00:59:32.364Z,25.77
2019-01-30T01:02:20.303Z,23.83
2019-01-30T01:05:08.143Z,27.37
2019-01-30T01:07:56.008Z,24.20
2019-01-30T01:10:43.879Z,24.03
2019-01-30T01:13:31.856Z,18.70
2019-01-30T01:16:19.340Z,23.30
2019-01-30T01:19:07.264Z,23.43
2019-01-30T01:21:55.117Z,25.13
2019-01-30T01:24:43.220Z,22.33
2019-01-30T01:27:31.007Z,26.50
2019-01-30T01:30:25.647Z,20.90
2019-01-30T01:33:13.449Z,23.83
2019-01-30T01:36:01.228Z,21.20
2019-01-30T01:38:49.381Z,22.97
2019-01-30T01:41:37.584Z,21.63
2019-01-30T01:44:25.224Z,21.87
2019-01-30T01:47:13.038Z,21.57
2019-01-30T01:50:00.975Z,25.47
2019-01-30T01:52:49.122Z,21.63
2019-01-30T01:55:37.086Z,21.67
2019-01-30T01:58:24.745Z,20.93
2019-01-30T02:01:12.649Z,17.20
2019-01-30T02:04:00.870Z,18.83
2019-01-30T02:06:48.672Z,20.97
2019-01-30T02:09:36.547Z,19.80
2019-01-30T02:12:24.602Z,19.53
2019-01-30T02:15:15.696Z,16.87
2019-01-30T02:18:46.085Z,19.03
2019-01-30T02:25:36.094Z,20.47
2019-01-30T02:31:36.094Z,18.83
2019-01-30T02:34:25.155Z,15.13
2019-01-30T02:37:12.776Z,16.23
2019-01-30T02:40:00.706Z,17.00
2019-01-30T02:42:48.840Z,18.20
2019-01-30T02:45:36.556Z,18.70
2019-01-30T02:48:24.638Z,18.10
2019-01-30T02:51:12.409Z,17.50
2019-01-30T02:54:00.489Z,17.27
2019-01-30T02:56:48.390Z,15.87
2019-01-30T02:59:36.085Z,16.40
2019-01-30T03:02:24.045Z,14.10
2019-01-30T03:05:13.532Z,17.33
2019-01-30T03:08:00.980Z,14.83
2019-01-30T03:10:48.805Z,16.67
2019-01-30T03:13:36.687Z,19.53
2019-01-30T03:16:24.860Z,15.70
2019-01-30T03:19:12.800Z,17.07
2019-01-30T03:22:00.708Z,16.87
2019-01-30T03:24:48.433Z,15.00
2019-01-30T03:27:36.493Z,19.60
2019-01-30T03:30:26.910Z,17.23
2019-01-30T03:33:14.977Z,16.37
2019-01-30T03:36:02.853Z,12.33
2019-01-30T03:38:50.452Z,14.00
2019-01-30T03:41:38.100Z,14.23
2019-01-30T03:44:26.001Z,13.37
2019-01-30T03:47:13.894Z,13.20
2019-01-30T03:50:01.681Z,13.90
2019-01-30T03:52:49.487Z,15.87
2019-01-30T03:55:37.116Z,14.53
2019-01-30T04:07:40.665Z,15.20
2019-01-30T04:29:01.538Z,21.83
2019-01-30T04:31:49.272Z,15.03
2019-01-30T04:34:37.180Z,15.70
2019-01-30T04:37:25.424Z,12.83
2019-01-30T04:40:15.844Z,12.60
2019-01-30T04:43:03.778Z,13.67
2019-01-30T04:45:51.481Z,13.50
2019-01-30T04:48:39.426Z,10.27
2019-01-30T04:51:27.455Z,11.87
2019-01-30T04:54:15.280Z,12.67
2019-01-30T04:57:03.007Z,13.47
2019-01-30T04:59:50.993Z,11.20
2019-01-30T05:02:38.978Z,13.10
2019-01-30T05:05:26.629Z,13.90
2019-01-30T05:08:14.557Z,12.53
2019-01-30T05:11:02.462Z,11.87
2019-01-30T05:13:50.920Z,11.97
2019-01-30T05:16:38.820Z,12.57
2019-01-30T05:19:26.405Z,11.43
2019-01-30T05:22:14.477Z,11.57
2019-01-30T05:25:02.077Z,12.90
2019-01-30T05:27:49.710Z,12.10
2019-01-30T05:30:37.690Z,11.50
2019-01-30T05:33:25.694Z,10.83
2019-01-30T05:36:13.605Z,12.00
2019-01-30T05:39:01.200Z,12.63
2019-01-30T05:41:49.025Z,13.20
2019-01-30T05:44:36.781Z,11.60
2019-01-30T05:47:24.354Z,11.93
2019-01-30T05:50:13.627Z,10.47
2019-01-30T05:53:01.184Z,13.17
2019-01-30T05:55:50.787Z,12.13
2019-01-30T05:58:40.634Z,12.73
2019-01-30T06:01:28.416Z,13.00
2019-01-30T06:04:16.496Z,12.80
2019-01-30T06:07:04.506Z,11.50
2019-01-30T06:09:52.604Z,12.57
2019-01-30T06:12:40.544Z,11.47
2019-01-30T06:15:28.984Z,13.63
2019-01-30T06:18:16.603Z,12.43
2019-01-30T06:21:04.652Z,14.27
2019-01-30T06:23:52.567Z,11.07
2019-01-30T06:26:40.513Z,14.27
2019-01-30T06:29:28.317Z,12.43
2019-01-30T06:32:21.833Z,16.07
2019-01-30T06:35:06.818Z,11.97
2019-01-30T06:37:54.560Z,12.37
2019-01-30T06:40:42.189Z,11.47
2019-01-30T06:43:29.841Z,13.20
2019-01-30T06:46:17.846Z,15.87
2019-01-30T06:49:05.577Z,10.97
2019-01-30T06:51:53.458Z,11.80
2019-01-30T06:54:41.213Z,14.43
2019-01-30T06:57:28.864Z,13.47
2019-01-30T07:00:20.080Z,12.80
2019-01-30T07:03:07.798Z,12.27
2019-01-30T07:05:55.665Z,12.53
2019-01-30T07:08:43.486Z,13.83
2019-01-30T07:11:31.297Z,11.70
2019-01-30T07:14:18.924Z,11.70
2019-01-30T07:17:06.627Z,12.67
2019-01-30T07:19:54.773Z,11.17
2019-01-30T07:22:42.748Z,11.33
2019-01-30T07:25:30.526Z,12.77
2019-01-30T07:28:18.436Z,12.00
2019-01-30T07:31:06.437Z,13.47
2019-01-30T07:33:54.258Z,11.87
2019-01-30T07:36:41.790Z,14.90
2019-01-30T07:39:29.648Z,12.10
2019-01-30T07:42:17.798Z,17.23
2019-01-30T07:45:08.496Z,16.77
2019-01-30T07:47:56.052Z,13.50
2019-01-30T07:50:43.776Z,18.03
2019-01-30T07:53:31.680Z,13.87
2019-01-30T07:56:19.483Z,14.33
2019-01-30T07:59:07.177Z,15.90
2019-01-30T08:01:55.083Z,18.13
2019-01-30T08:04:42.852Z,12.53
2019-01-30T08:07:32.377Z,11.60
2019-01-30T08:10:20.216Z,9.37
2019-01-30T08:13:07.764Z,10.67
2019-01-30T08:15:55.681Z,12.40
2019-01-30T08:18:43.328Z,8.30
2019-01-30T08:21:31.107Z,8.13
2019-01-30T08:24:18.963Z,10.67
2019-01-30T08:27:06.851Z,9.10
2019-01-30T08:29:55.197Z,10.03
2019-01-30T08:32:43.074Z,9.53
2019-01-30T08:35:32.729Z,11.37
2019-01-30T08:38:20.566Z,12.07
2019-01-30T08:41:08.375Z,8.60
2019-01-30T08:43:57.978Z,8.50
2019-01-30T08:46:45.392Z,10.77
2019-01-30T08:49:33.304Z,9.30
2019-01-30T08:52:21.094Z,7.53
2019-01-30T08:55:11.030Z,8.60
2019-01-30T08:57:58.639Z,7.60
2019-01-30T09:00:46.277Z,10.30
2019-01-30T09:03:33.858Z,9.90
2019-01-30T09:06:21.713Z,7.43
2019-01-30T09:09:09.505Z,9.63
2019-01-30T09:11:57.786Z,8.80
2019-01-30T09:14:45.574Z,8.30
2019-01-30T09:17:33.480Z,11.83
2019-01-30T09:20:23.008Z,12.43
2019-01-30T09:23:10.593Z,10.40
2019-01-30T09:25:58.623Z,10.20
2019-01-30T09:28:46.349Z,8.87
2019-01-30T09:31:34.163Z,9.90
2019-01-30T09:34:21.936Z,11.90
2019-01-30T09:37:09.932Z,9.50
2019-01-30T09:39:57.848Z,6.60
2019-01-30T09:42:45.905Z,7.03
2019-01-30T09:45:33.636Z,7.43
2019-01-30T09:48:21.325Z,7.00
2019-01-30T09:51:09.241Z,7.37
2019-01-30T09:53:57.675Z,6.67
2019-01-30T09:56:45.320Z,7.13
2019-01-30T09:59:33.029Z,9.37
2019-01-30T10:02:20.933Z,5.60
2019-01-30T10:05:11.676Z,5.50
2019-01-30T10:07:59.205Z,5.67
2019-01-30T10:10:46.780Z,5.20
2019-01-30T10:13:34.504Z,5.07
2019-01-30T10:16:22.137Z,4.83
2019-01-30T10:19:10.022Z,4.20
2019-01-30T10:21:57.844Z,2.70
2019-01-30T10:24:45.768Z,3.97
2019-01-30T10:27:33.525Z,3.80
2019-01-30T10:30:33.416Z,3.53
2019-01-30T10:33:20.970Z,3.87
2019-01-30T10:36:08.917Z,3.23
2019-01-30T10:38:56.825Z,1.97
2019-01-30T10:41:44.683Z,3.93
2019-01-30T10:44:32.217Z,1.80
2019-01-30T10:47:19.868Z,1.70
2019-01-30T10:50:10.753Z,1.30
2019-01-30T10:52:58.698Z,1.23
2019-01-30T10:55:46.544Z,1.83
2019-01-30T10:58:34.320Z,1.30
2019-01-30T11:01:22.188Z,1.60
2019-01-30T11:04:09.771Z,1.30
2019-01-30T11:06:57.897Z,1.03
2019-01-30T11:09:45.772Z,0.83
2019-01-30T11:12:33.808Z,0.90
2019-01-30T11:15:27.380Z,0.80
2019-01-30T11:18:16.131Z,0.70
2019-01-30T11:21:05.983Z,0.80
2019-01-30T11:23:53.591Z,1.33
2019-01-30T11:26:41.449Z,1.07
2019-01-30T11:29:29.300Z,0.60
2019-01-30T11:32:16.893Z,0.67
2019-01-30T11:35:06.688Z,0.57
2019-01-30T11:37:54.543Z,0.90
2019-01-30T11:40:42.508Z,0.53
2019-01-30T11:43:30.153Z,0.57
2019-01-30T11:46:17.963Z,0.70
2019-01-30T11:49:05.933Z,0.50
2019-01-30T11:51:53.897Z,0.73
2019-01-30T11:54:41.700Z,0.60
2019-01-30T11:57:29.564Z,0.60
2019-01-30T12:00:30.853Z,0.60
2019-01-30T12:03:18.436Z,0.60
2019-01-30T12:06:06.488Z,0.67
2019-01-30T12:08:54.377Z,1.73
2019-01-30T12:11:41.955Z,0.80
2019-01-30T12:14:29.579Z,0.80
2019-01-30T12:17:17.338Z,0.70
2019-01-30T12:20:08.252Z,1.77
2019-01-30T12:22:56.008Z,0.80
2019-01-30T12:25:43.981Z,0.87
2019-01-30T12:28:31.570Z,0.70
2019-01-30T12:31:19.458Z,1.43
2019-01-30T12:34:07.626Z,0.80
2019-01-30T12:36:55.329Z,0.67
2019-01-30T12:39:42.944Z,0.57
2019-01-30T12:42:31.004Z,0.40
2019-01-30T12:45:21.909Z,0.70
2019-01-30T12:48:10.851Z,1.80
2019-01-30T12:50:58.681Z,1.13
2019-01-30T12:53:46.505Z,0.70
2019-01-30T12:56:34.236Z,0.90
2019-01-30T12:59:22.148Z,0.50
2019-01-30T13:02:10.093Z,0.80
2019-01-30T13:04:58.095Z,0.60
2019-01-30T13:07:45.723Z,1.07
2019-01-30T13:10:33.580Z,0.87
2019-01-30T13:13:21.511Z,0.80
2019-01-30T13:16:09.096Z,0.67
2019-01-30T13:18:56.524Z,1.30
2019-01-30T13:21:44.379Z,0.93
2019-01-30T13:24:32.232Z,0.73
2019-01-30T13:27:20.400Z,1.27
2019-01-30T13:30:14.164Z,1.50
2019-01-30T13:33:03.460Z,0.83
2019-01-30T13:35:51.296Z,1.20
2019-01-30T13:38:39.031Z,2.23
2019-01-30T13:41:26.925Z,0.90
2019-01-30T13:44:14.924Z,0.93
2019-01-30T13:47:02.768Z,1.90
2019-01-30T13:49:50.300Z,0.70
2019-01-30T13:52:38.232Z,0.80
2019-01-30T13:55:26.561Z,0.50
2019-01-30T13:58:14.216Z,0.50
2019-01-30T14:01:02.262Z,0.93
2019-01-30T14:03:49.907Z,0.93
2019-01-30T14:06:38.073Z,0.90
2019-01-30T14:09:25.986Z,0.87
2019-01-30T14:12:14.012Z,1.43
2019-01-30T14:15:01.758Z,1.23
2019-01-30T14:17:49.834Z,0.80
2019-01-30T14:20:37.480Z,1.13
2019-01-30T14:23:25.236Z,0.60
2019-01-30T14:26:13.036Z,0.73
2019-01-30T14:29:01.057Z,0.70
2019-01-30T14:31:48.874Z,0.80
2019-01-30T14:34:36.901Z,0.93
2019-01-30T14:37:24.900Z,0.80
2019-01-30T14:40:18.391Z,0.90
2019-01-30T14:43:06.265Z,1.50
2019-01-30T14:45:53.912Z,1.00
2019-01-30T14:48:41.919Z,1.40
2019-01-30T14:51:29.705Z,1.83
2019-01-30T14:54:17.771Z,3.70
2019-01-30T14:57:05.575Z,3.37
2019-01-30T14:59:53.496Z,0.60
2019-01-30T15:02:41.353Z,0.70
2019-01-30T15:05:30.326Z,0.77
2019-01-30T15:08:18.017Z,0.80
2019-01-30T15:11:05.956Z,0.67
2019-01-30T15:13:53.582Z,0.50
2019-01-30T15:16:41.350Z,0.77
2019-01-30T15:19:29.110Z,1.20
2019-01-30T15:22:16.740Z,0.80
2019-01-30T15:25:07.817Z,0.97
2019-01-30T15:27:56.306Z,1.93
2019-01-30T15:30:45.044Z,0.73
2019-01-30T15:33:32.767Z,0.50
2019-01-30T15:36:20.684Z,1.40
2019-01-30T15:39:09.108Z,1.10
2019-01-30T15:41:57.144Z,1.00
2019-01-30T15:44:45.096Z,0.80
2019-01-30T15:47:32.841Z,1.27
2019-01-30T15:50:40.944Z,2.70
2019-01-30T15:53:28.696Z,1.87
2019-01-30T15:56:16.380Z,1.97
2019-01-30T15:59:04.476Z,1.00
2019-01-30T16:01:52.044Z,1.30
2019-01-30T16:04:39.668Z,1.17
2019-01-30T16:07:27.697Z,0.83
2019-01-30T16:10:15.987Z,1.20
2019-01-30T16:13:04.516Z,1.73
2019-01-30T16:15:55.216Z,1.90
2019-01-30T16:18:42.935Z,1.40
2019-01-30T16:21:31.068Z,1.57
2019-01-30T16:24:18.924Z,1.70
2019-01-30T16:27:06.906Z,1.13
2019-01-30T16:29:54.509Z,0.90
2019-01-30T16:32:42.417Z,1.30
2019-01-30T16:35:33.540Z,1.77
2019-01-30T16:38:21.092Z,3.20
2019-01-30T16:41:09.000Z,1.97
2019-01-30T16:43:56.876Z,1.80
2019-01-30T16:46:44.480Z,1.67
2019-01-30T16:49:32.029Z,1.20
2019-01-30T16:52:19.947Z,1.47
2019-01-30T16:55:09.561Z,2.10
2019-01-30T16:57:57.557Z,1.80
2019-01-30T17:00:46.756Z,3.67
2019-01-30T17:03:34.892Z,1.97
2019-01-30T17:06:22.551Z,3.00
2019-01-30T17:09:10.822Z,33.30
2019-01-30T17:11:58.520Z,3.03
2019-01-30T17:14:46.080Z,3.00
2019-01-30T17:17:33.964Z,4.10
2019-01-30T17:20:27.424Z,2.73
2019-01-30T17:23:15.388Z,3.00
2019-01-30T17:26:02.948Z,1.80
2019-01-30T17:28:50.480Z,1.87
2019-01-30T17:31:38.444Z,1.73
2019-01-30T17:34:26.469Z,3.10
2019-01-30T17:37:14.177Z,2.27
2019-01-30T17:40:02.649Z,1.57
2019-01-30T17:42:50.735Z,4.17
2019-01-30T17:45:38.638Z,3.43
2019-01-30T17:48:26.199Z,19.53
2019-01-30T17:51:14.058Z,2.07
2019-01-30T17:54:01.693Z,3.27
2019-01-30T17:56:49.723Z,3.43
2019-01-30T17:59:37.630Z,5.53
2019-01-30T18:02:25.621Z,3.47
2019-01-30T18:05:13.528Z,2.27
2019-01-30T18:08:01.592Z,3.73
2019-01-30T18:10:49.229Z,2.37
2019-01-30T18:13:37.200Z,1.60
2019-01-30T18:16:26.840Z,3.87
2019-01-30T18:19:14.866Z,6.47
2019-01-30T18:22:02.479Z,7.23
2019-01-30T18:24:50.302Z,7.50
2019-01-30T18:27:38.128Z,7.60
2019-01-30T18:30:26.221Z,5.70
2019-01-30T18:33:13.917Z,4.47
2019-01-30T18:36:01.631Z,4.03
2019-01-30T18:38:49.545Z,2.97
2019-01-30T18:41:37.581Z,2.60
2019-01-30T18:44:25.323Z,3.70
2019-01-30T18:47:13.247Z,3.77
2019-01-30T18:50:01.130Z,5.03
2019-01-30T18:52:49.127Z,3.67
2019-01-30T18:55:37.032Z,2.13
2019-01-30T18:58:24.876Z,2.60
2019-01-30T19:01:12.664Z,3.87
2019-01-30T19:04:00.310Z,3.00
2019-01-30T19:06:52.375Z,3.07
2019-01-30T19:09:37.735Z,3.83
2019-01-30T19:12:25.590Z,2.10
2019-01-30T19:15:19.381Z,2.10
2019-01-30T19:18:07.710Z,2.07
2019-01-30T19:20:55.654Z,2.67
2019-01-30T19:23:43.472Z,2.30
2019-01-30T19:26:31.205Z,2.70
2019-01-30T19:29:18.968Z,2.30
2019-01-30T19:32:06.578Z,2.70
2019-01-30T19:34:54.400Z,5.13
2019-01-30T19:37:42.289Z,6.67
2019-01-30T19:40:30.387Z,6.93
2019-01-30T19:43:18.169Z,4.97
2019-01-30T19:46:05.953Z,4.43
2019-01-30T19:48:53.789Z,4.43
2019-01-30T19:51:41.823Z,4.07
2019-01-30T19:54:29.609Z,3.83
2019-01-30T19:57:17.243Z,3.87
2019-01-30T20:00:11.220Z,4.93
2019-01-30T20:03:00.216Z,3.50
2019-01-30T20:05:48.120Z,5.53
2019-01-30T20:08:36.212Z,1.97
2019-01-30T20:11:24.056Z,2.40
2019-01-30T20:14:11.679Z,2.03
2019-01-30T20:16:59.532Z,3.53
2019-01-30T20:19:47.337Z,3.73
2019-01-30T20:22:35.206Z,5.40
2019-01-30T20:25:28.916Z,3.13
2019-01-30T20:28:16.747Z,2.63
2019-01-30T20:31:04.836Z,2.00
2019-01-30T20:33:52.645Z,2.03
2019-01-30T20:36:40.399Z,3.50
2019-01-30T20:39:28.069Z,2.57
2019-01-30T20:42:15.624Z,5.47
2019-01-30T20:45:04.088Z,2.87
2019-01-30T20:47:52.076Z,3.53
2019-01-30T20:50:40.061Z,3.77
2019-01-30T20:53:27.592Z,5.17
2019-01-30T20:56:15.689Z,3.23
2019-01-30T20:59:03.361Z,2.87
2019-01-30T21:01:51.186Z,2.60
2019-01-30T21:04:39.020Z,2.53
2019-01-30T21:07:36.847Z,2.20
2019-01-30T21:10:24.928Z,3.50
2019-01-30T21:13:12.806Z,4.57
2019-01-30T21:16:00.687Z,2.77
2019-01-30T21:18:49.343Z,3.37
2019-01-30T21:21:36.793Z,3.23
2019-01-30T21:24:24.480Z,2.73
2019-01-30T21:27:12.200Z,2.60
2019-01-30T21:29:59.845Z,2.73
2019-01-30T21:32:47.499Z,4.50
2019-01-30T21:35:35.325Z,4.73
2019-01-30T21:38:22.926Z,2.60
2019-01-30T21:41:10.457Z,8.37
2019-01-30T21:43:57.992Z,1.90
2019-01-30T21:46:45.960Z,1.97
2019-01-30T21:49:33.838Z,5.00
2019-01-30T21:52:21.511Z,6.77
2019-01-30T21:55:12.697Z,2.73
2019-01-30T21:58:00.645Z,4.23
2019-01-30T22:00:48.809Z,3.60
2019-01-30T22:03:36.342Z,2.53
2019-01-30T22:06:23.961Z,4.60
2019-01-30T22:09:11.972Z,4.20
2019-01-30T22:11:59.756Z,4.77
2019-01-30T22:14:47.693Z,3.23
2019-01-30T22:17:35.151Z,4.10
2019-01-30T22:20:24.975Z,4.47
2019-01-30T22:23:12.856Z,5.53
2019-01-30T22:26:00.686Z,6.10
2019-01-30T22:28:48.566Z,4.57
2019-01-30T22:31:36.249Z,4.40
2019-01-30T22:34:23.943Z,6.53
2019-01-30T22:37:11.522Z,6.53
2019-01-30T22:39:59.384Z,3.80
2019-01-30T22:42:47.460Z,6.43
2019-01-30T22:45:35.346Z,4.83
2019-01-30T22:48:23.254Z,8.67
2019-01-30T22:51:11.156Z,5.40
2019-01-30T22:53:59.132Z,3.90
2019-01-30T22:56:47.181Z,7.57
2019-01-30T22:59:35.041Z,8.67
2019-01-30T23:02:22.922Z,7.37
2019-01-30T23:05:19.583Z,5.80
2019-01-30T23:08:09.899Z,4.27
2019-01-30T23:11:09.509Z,6.77
2019-01-30T23:13:57.747Z,5.53
2019-01-30T23:16:54.620Z,6.27
2019-01-30T23:19:45.305Z,9.40
2019-01-30T23:22:58.708Z,4.37
2019-01-30T23:25:49.469Z,6.87
2019-01-30T23:28:46.220Z,4.30
2019-01-30T23:31:50.236Z,6.40
2019-01-30T23:34:40.777Z,4.57
2019-01-30T23:37:34.421Z,4.77
2019-01-30T23:40:43.068Z,7.03
2019-01-30T23:43:48.683Z,9.47
2019-01-30T23:46:48.617Z,6.97
2019-01-30T23:49:39.281Z,7.07
2019-01-30T23:52:36.145Z,5.73
2019-01-30T23:55:51.372Z,7.63
2019-01-30T23:58:59.358Z,6.57
